sensor_id;sensor_type;location;lat;lon;timestamp;P1;durP1;ratioP1;P2;durP2;ratioP2
75413;SDS011;64758;52.122;5.404;2024-01-30T00:00:44;11.82;;;8.10;;
75413;SDS011;64758;52.122;5.404;2024-01-30T00:03:11;13.18;;;7.85;;
75413;SDS011;64758;52.122;5.404;2024-01-30T00:05:38;12.90;;;7.73;;
75413;SDS011;64758;52.122;5.404;2024-01-30T00:08:04;17.65;;;7.95;;
75413;SDS011;64758;52.122;5.404;2024-01-30T00:10:31;12.52;;;8.18;;
75413;SDS011;64758;52.122;5.404;2024-01-30T00:12:58;14.25;;;8.27;;
75413;SDS011;64758;52.122;5.404;2024-01-30T00:15:25;13.73;;;8.57;;
75413;SDS011;64758;52.122;5.404;2024-01-30T00:17:51;13.00;;;7.80;;
75413;SDS011;64758;52.122;5.404;2024-01-30T00:20:20;13.05;;;7.85;;
75413;SDS011;64758;52.122;5.404;2024-01-30T00:22:47;12.48;;;7.72;;
75413;SDS011;64758;52.122;5.404;2024-01-30T00:25:13;13.63;;;8.18;;
75413;SDS011;64758;52.122;5.404;2024-01-30T00:27:40;12.80;;;8.30;;
75413;SDS011;64758;52.122;5.404;2024-01-30T00:30:07;13.33;;;7.90;;
75413;SDS011;64758;52.122;5.404;2024-01-30T00:32:35;12.82;;;7.80;;
75413;SDS011;64758;52.122;5.404;2024-01-30T00:35:01;12.73;;;7.50;;
75413;SDS011;64758;52.122;5.404;2024-01-30T00:37:28;12.38;;;7.60;;
75413;SDS011;64758;52.122;5.404;2024-01-30T00:39:55;13.52;;;8.70;;
75413;SDS011;64758;52.122;5.404;2024-01-30T00:42:21;15.23;;;7.73;;
75413;SDS011;64758;52.122;5.404;2024-01-30T00:44:50;12.80;;;7.22;;
75413;SDS011;64758;52.122;5.404;2024-01-30T00:47:16;12.85;;;7.50;;
75413;SDS011;64758;52.122;5.404;2024-01-30T00:49:43;11.70;;;7.90;;
75413;SDS011;64758;52.122;5.404;2024-01-30T00:52:10;12.60;;;7.95;;
75413;SDS011;64758;52.122;5.404;2024-01-30T00:54:37;13.63;;;7.63;;
75413;SDS011;64758;52.122;5.404;2024-01-30T00:57:03;14.63;;;8.00;;
75413;SDS011;64758;52.122;5.404;2024-01-30T00:59:30;11.25;;;7.43;;
75413;SDS011;64758;52.122;5.404;2024-01-30T01:01:57;15.63;;;8.40;;
75413;SDS011;64758;52.122;5.404;2024-01-30T01:04:24;13.73;;;7.65;;
75413;SDS011;64758;52.122;5.404;2024-01-30T01:06:50;10.87;;;7.00;;
75413;SDS011;64758;52.122;5.404;2024-01-30T01:09:17;12.23;;;7.38;;
75413;SDS011;64758;52.122;5.404;2024-01-30T01:11:43;13.73;;;7.93;;
75413;SDS011;64758;52.122;5.404;2024-01-30T01:14:10;9.57;;;6.88;;
75413;SDS011;64758;52.122;5.404;2024-01-30T01:16:36;10.07;;;7.57;;
75413;SDS011;64758;52.122;5.404;2024-01-30T01:19:03;11.37;;;6.60;;
75413;SDS011;64758;52.122;5.404;2024-01-30T01:21:30;10.52;;;7.18;;
75413;SDS011;64758;52.122;5.404;2024-01-30T01:23:57;10.65;;;7.65;;
75413;SDS011;64758;52.122;5.404;2024-01-30T01:26:24;11.60;;;6.75;;
75413;SDS011;64758;52.122;5.404;2024-01-30T01:28:50;12.82;;;7.00;;
75413;SDS011;64758;52.122;5.404;2024-01-30T01:31:17;11.23;;;7.20;;
75413;SDS011;64758;52.122;5.404;2024-01-30T01:33:44;13.10;;;7.90;;
75413;SDS011;64758;52.122;5.404;2024-01-30T01:36:11;12.10;;;7.22;;
75413;SDS011;64758;52.122;5.404;2024-01-30T01:38:39;12.73;;;7.20;;
75413;SDS011;64758;52.122;5.404;2024-01-30T01:41:06;14.13;;;7.82;;
75413;SDS011;64758;52.122;5.404;2024-01-30T01:43:32;12.07;;;7.50;;
75413;SDS011;64758;52.122;5.404;2024-01-30T01:45:59;13.52;;;7.95;;
75413;SDS011;64758;52.122;5.404;2024-01-30T01:48:26;13.85;;;7.97;;
75413;SDS011;64758;52.122;5.404;2024-01-30T01:50:53;12.00;;;7.95;;
75413;SDS011;64758;52.122;5.404;2024-01-30T01:53:20;11.13;;;7.13;;
75413;SDS011;64758;52.122;5.404;2024-01-30T01:55:46;9.47;;;6.67;;
75413;SDS011;64758;52.122;5.404;2024-01-30T01:58:14;11.35;;;7.38;;
75413;SDS011;64758;52.122;5.404;2024-01-30T02:00:41;13.73;;;7.80;;
75413;SDS011;64758;52.122;5.404;2024-01-30T02:03:10;11.20;;;7.45;;
75413;SDS011;64758;52.122;5.404;2024-01-30T02:05:38;11.95;;;7.38;;
75413;SDS011;64758;52.122;5.404;2024-01-30T02:08:06;9.23;;;6.67;;
75413;SDS011;64758;52.122;5.404;2024-01-30T02:10:33;10.45;;;6.60;;
75413;SDS011;64758;52.122;5.404;2024-01-30T02:13:00;9.98;;;6.68;;
75413;SDS011;64758;52.122;5.404;2024-01-30T02:15:27;11.75;;;6.55;;
75413;SDS011;64758;52.122;5.404;2024-01-30T02:17:55;9.18;;;6.00;;
75413;SDS011;64758;52.122;5.404;2024-01-30T02:20:22;10.30;;;6.13;;
75413;SDS011;64758;52.122;5.404;2024-01-30T02:22:52;9.40;;;6.38;;
75413;SDS011;64758;52.122;5.404;2024-01-30T02:25:20;8.57;;;5.80;;
75413;SDS011;64758;52.122;5.404;2024-01-30T02:27:47;10.13;;;6.68;;
75413;SDS011;64758;52.122;5.404;2024-01-30T02:30:13;13.93;;;6.90;;
75413;SDS011;64758;52.122;5.404;2024-01-30T02:32:40;11.07;;;6.17;;
75413;SDS011;64758;52.122;5.404;2024-01-30T02:35:06;11.82;;;6.95;;
75413;SDS011;64758;52.122;5.404;2024-01-30T02:37:33;13.45;;;6.78;;
75413;SDS011;64758;52.122;5.404;2024-01-30T02:39:59;11.13;;;6.97;;
75413;SDS011;64758;52.122;5.404;2024-01-30T02:42:26;10.32;;;6.25;;
75413;SDS011;64758;52.122;5.404;2024-01-30T02:44:52;10.90;;;6.70;;
75413;SDS011;64758;52.122;5.404;2024-01-30T02:47:19;10.35;;;6.55;;
75413;SDS011;64758;52.122;5.404;2024-01-30T02:49:45;9.45;;;7.03;;
75413;SDS011;64758;52.122;5.404;2024-01-30T02:52:12;8.75;;;5.68;;
75413;SDS011;64758;52.122;5.404;2024-01-30T02:54:38;8.57;;;5.53;;
75413;SDS011;64758;52.122;5.404;2024-01-30T02:57:05;9.43;;;6.13;;
75413;SDS011;64758;52.122;5.404;2024-01-30T02:59:32;10.63;;;6.00;;
75413;SDS011;64758;52.122;5.404;2024-01-30T03:02:01;10.88;;;6.03;;
75413;SDS011;64758;52.122;5.404;2024-01-30T03:04:28;11.68;;;7.18;;
75413;SDS011;64758;52.122;5.404;2024-01-30T03:06:56;13.60;;;8.52;;
75413;SDS011;64758;52.122;5.404;2024-01-30T03:09:23;18.47;;;9.27;;
75413;SDS011;64758;52.122;5.404;2024-01-30T03:11:49;19.85;;;9.95;;
75413;SDS011;64758;52.122;5.404;2024-01-30T03:14:16;20.02;;;9.23;;
75413;SDS011;64758;52.122;5.404;2024-01-30T03:16:43;17.73;;;9.05;;
75413;SDS011;64758;52.122;5.404;2024-01-30T03:19:09;16.65;;;8.98;;
75413;SDS011;64758;52.122;5.404;2024-01-30T03:21:36;12.60;;;8.43;;
75413;SDS011;64758;52.122;5.404;2024-01-30T03:24:03;13.85;;;8.68;;
75413;SDS011;64758;52.122;5.404;2024-01-30T03:26:29;13.75;;;9.05;;
75413;SDS011;64758;52.122;5.404;2024-01-30T03:28:56;14.82;;;8.95;;
75413;SDS011;64758;52.122;5.404;2024-01-30T03:31:22;12.27;;;7.97;;
75413;SDS011;64758;52.122;5.404;2024-01-30T03:33:49;13.27;;;8.20;;
75413;SDS011;64758;52.122;5.404;2024-01-30T03:36:16;13.60;;;8.25;;
75413;SDS011;64758;52.122;5.404;2024-01-30T03:38:43;14.18;;;7.63;;
75413;SDS011;64758;52.122;5.404;2024-01-30T03:41:09;17.00;;;7.63;;
75413;SDS011;64758;52.122;5.404;2024-01-30T03:43:36;10.85;;;7.50;;
75413;SDS011;64758;52.122;5.404;2024-01-30T03:46:03;10.87;;;7.10;;
75413;SDS011;64758;52.122;5.404;2024-01-30T03:48:30;12.68;;;7.05;;
75413;SDS011;64758;52.122;5.404;2024-01-30T03:50:56;12.50;;;7.80;;
75413;SDS011;64758;52.122;5.404;2024-01-30T03:53:23;11.38;;;6.90;;
75413;SDS011;64758;52.122;5.404;2024-01-30T03:55:50;12.10;;;6.65;;
75413;SDS011;64758;52.122;5.404;2024-01-30T03:58:16;11.63;;;7.13;;
75413;SDS011;64758;52.122;5.404;2024-01-30T04:00:43;12.90;;;7.07;;
75413;SDS011;64758;52.122;5.404;2024-01-30T04:03:11;11.13;;;6.75;;
75413;SDS011;64758;52.122;5.404;2024-01-30T04:05:37;12.27;;;6.43;;
75413;SDS011;64758;52.122;5.404;2024-01-30T04:08:04;11.85;;;6.65;;
75413;SDS011;64758;52.122;5.404;2024-01-30T04:10:31;9.37;;;5.93;;
75413;SDS011;64758;52.122;5.404;2024-01-30T04:12:57;10.95;;;5.68;;
75413;SDS011;64758;52.122;5.404;2024-01-30T04:15:24;10.38;;;5.40;;
75413;SDS011;64758;52.122;5.404;2024-01-30T04:17:50;10.88;;;6.10;;
75413;SDS011;64758;52.122;5.404;2024-01-30T04:20:17;8.55;;;6.10;;
75413;SDS011;64758;52.122;5.404;2024-01-30T04:22:47;8.53;;;5.77;;
75413;SDS011;64758;52.122;5.404;2024-01-30T04:25:13;8.55;;;5.85;;
75413;SDS011;64758;52.122;5.404;2024-01-30T04:27:40;9.73;;;5.45;;
75413;SDS011;64758;52.122;5.404;2024-01-30T04:30:07;10.43;;;5.65;;
75413;SDS011;64758;52.122;5.404;2024-01-30T04:32:35;9.63;;;5.57;;
75413;SDS011;64758;52.122;5.404;2024-01-30T04:35:02;8.97;;;5.30;;
75413;SDS011;64758;52.122;5.404;2024-01-30T04:37:35;9.85;;;5.45;;
75413;SDS011;64758;52.122;5.404;2024-01-30T04:40:01;9.80;;;5.63;;
75413;SDS011;64758;52.122;5.404;2024-01-30T04:42:29;9.18;;;5.70;;
75413;SDS011;64758;52.122;5.404;2024-01-30T04:44:55;7.95;;;5.47;;
75413;SDS011;64758;52.122;5.404;2024-01-30T04:47:22;7.57;;;4.90;;
75413;SDS011;64758;52.122;5.404;2024-01-30T04:49:49;8.25;;;5.60;;
75413;SDS011;64758;52.122;5.404;2024-01-30T04:52:17;8.77;;;5.55;;
75413;SDS011;64758;52.122;5.404;2024-01-30T04:54:44;8.43;;;5.28;;
75413;SDS011;64758;52.122;5.404;2024-01-30T04:57:11;9.95;;;5.28;;
75413;SDS011;64758;52.122;5.404;2024-01-30T04:59:38;10.00;;;5.90;;
75413;SDS011;64758;52.122;5.404;2024-01-30T05:02:05;8.98;;;5.53;;
75413;SDS011;64758;52.122;5.404;2024-01-30T05:04:32;10.75;;;6.30;;
75413;SDS011;64758;52.122;5.404;2024-01-30T05:06:58;9.45;;;5.70;;
75413;SDS011;64758;52.122;5.404;2024-01-30T05:09:25;7.80;;;5.50;;
75413;SDS011;64758;52.122;5.404;2024-01-30T05:11:52;7.63;;;5.37;;
75413;SDS011;64758;52.122;5.404;2024-01-30T05:14:18;8.82;;;5.35;;
75413;SDS011;64758;52.122;5.404;2024-01-30T05:16:45;9.10;;;5.60;;
75413;SDS011;64758;52.122;5.404;2024-01-30T05:19:13;7.53;;;5.50;;
75413;SDS011;64758;52.122;5.404;2024-01-30T05:21:41;9.73;;;5.20;;
75413;SDS011;64758;52.122;5.404;2024-01-30T05:24:08;10.43;;;5.27;;
75413;SDS011;64758;52.122;5.404;2024-01-30T05:26:36;8.00;;;4.95;;
75413;SDS011;64758;52.122;5.404;2024-01-30T05:29:02;8.98;;;4.85;;
75413;SDS011;64758;52.122;5.404;2024-01-30T05:31:30;10.27;;;5.18;;
75413;SDS011;64758;52.122;5.404;2024-01-30T05:33:57;10.02;;;5.45;;
75413;SDS011;64758;52.122;5.404;2024-01-30T05:36:24;10.07;;;5.40;;
75413;SDS011;64758;52.122;5.404;2024-01-30T05:38:51;11.52;;;5.63;;
75413;SDS011;64758;52.122;5.404;2024-01-30T05:41:17;8.35;;;5.78;;
75413;SDS011;64758;52.122;5.404;2024-01-30T05:43:44;9.48;;;4.78;;
75413;SDS011;64758;52.122;5.404;2024-01-30T05:46:10;10.77;;;5.80;;
75413;SDS011;64758;52.122;5.404;2024-01-30T05:48:37;7.33;;;5.23;;
75413;SDS011;64758;52.122;5.404;2024-01-30T05:51:04;9.85;;;5.45;;
75413;SDS011;64758;52.122;5.404;2024-01-30T05:53:31;9.05;;;5.25;;
75413;SDS011;64758;52.122;5.404;2024-01-30T05:55:57;11.43;;;5.60;;
75413;SDS011;64758;52.122;5.404;2024-01-30T05:58:24;8.32;;;5.80;;
75413;SDS011;64758;52.122;5.404;2024-01-30T06:00:50;9.07;;;5.17;;
75413;SDS011;64758;52.122;5.404;2024-01-30T06:03:17;7.88;;;4.70;;
75413;SDS011;64758;52.122;5.404;2024-01-30T06:05:44;9.48;;;5.18;;
75413;SDS011;64758;52.122;5.404;2024-01-30T06:08:10;9.25;;;5.18;;
75413;SDS011;64758;52.122;5.404;2024-01-30T06:10:37;9.02;;;5.63;;
75413;SDS011;64758;52.122;5.404;2024-01-30T06:13:03;9.00;;;4.77;;
75413;SDS011;64758;52.122;5.404;2024-01-30T06:15:30;8.32;;;4.68;;
75413;SDS011;64758;52.122;5.404;2024-01-30T06:17:58;7.13;;;5.10;;
75413;SDS011;64758;52.122;5.404;2024-01-30T06:20:25;8.38;;;5.30;;
75413;SDS011;64758;52.122;5.404;2024-01-30T06:22:51;7.97;;;5.50;;
75413;SDS011;64758;52.122;5.404;2024-01-30T06:25:18;9.20;;;5.10;;
75413;SDS011;64758;52.122;5.404;2024-01-30T06:27:45;7.47;;;5.20;;
75413;SDS011;64758;52.122;5.404;2024-01-30T06:30:11;7.88;;;5.05;;
75413;SDS011;64758;52.122;5.404;2024-01-30T06:32:38;7.30;;;5.05;;
75413;SDS011;64758;52.122;5.404;2024-01-30T06:35:05;6.70;;;4.90;;
75413;SDS011;64758;52.122;5.404;2024-01-30T06:37:32;8.73;;;4.97;;
75413;SDS011;64758;52.122;5.404;2024-01-30T06:39:58;9.27;;;5.20;;
75413;SDS011;64758;52.122;5.404;2024-01-30T06:42:25;9.88;;;4.75;;
75413;SDS011;64758;52.122;5.404;2024-01-30T06:44:52;8.57;;;5.35;;
75413;SDS011;64758;52.122;5.404;2024-01-30T06:47:18;6.80;;;4.93;;
75413;SDS011;64758;52.122;5.404;2024-01-30T06:49:45;8.57;;;4.80;;
75413;SDS011;64758;52.122;5.404;2024-01-30T06:52:11;8.10;;;5.57;;
75413;SDS011;64758;52.122;5.404;2024-01-30T06:54:38;9.00;;;5.18;;
75413;SDS011;64758;52.122;5.404;2024-01-30T06:57:06;7.95;;;5.38;;
75413;SDS011;64758;52.122;5.404;2024-01-30T06:59:38;9.32;;;5.40;;
75413;SDS011;64758;52.122;5.404;2024-01-30T07:02:10;8.40;;;4.80;;
75413;SDS011;64758;52.122;5.404;2024-01-30T07:04:37;7.22;;;4.78;;
75413;SDS011;64758;52.122;5.404;2024-01-30T07:07:08;7.38;;;5.40;;
75413;SDS011;64758;52.122;5.404;2024-01-30T07:09:38;7.78;;;5.47;;
75413;SDS011;64758;52.122;5.404;2024-01-30T07:12:05;7.90;;;5.13;;
75413;SDS011;64758;52.122;5.404;2024-01-30T07:14:33;10.50;;;4.93;;
75413;SDS011;64758;52.122;5.404;2024-01-30T07:16:59;8.60;;;4.65;;
75413;SDS011;64758;52.122;5.404;2024-01-30T07:19:26;8.82;;;5.57;;
75413;SDS011;64758;52.122;5.404;2024-01-30T07:21:52;7.32;;;5.20;;
75413;SDS011;64758;52.122;5.404;2024-01-30T07:24:19;7.47;;;4.90;;
75413;SDS011;64758;52.122;5.404;2024-01-30T07:26:45;13.73;;;5.27;;
75413;SDS011;64758;52.122;5.404;2024-01-30T07:29:12;13.00;;;5.32;;
75413;SDS011;64758;52.122;5.404;2024-01-30T07:31:39;9.60;;;5.43;;
75413;SDS011;64758;52.122;5.404;2024-01-30T07:34:06;7.65;;;5.20;;
75413;SDS011;64758;52.122;5.404;2024-01-30T07:36:33;8.95;;;5.50;;
75413;SDS011;64758;52.122;5.404;2024-01-30T07:38:59;7.50;;;5.00;;
75413;SDS011;64758;52.122;5.404;2024-01-30T07:41:26;9.65;;;5.60;;
75413;SDS011;64758;52.122;5.404;2024-01-30T07:43:53;7.63;;;4.78;;
75413;SDS011;64758;52.122;5.404;2024-01-30T07:46:20;7.55;;;4.85;;
75413;SDS011;64758;52.122;5.404;2024-01-30T07:48:46;8.95;;;5.40;;
75413;SDS011;64758;52.122;5.404;2024-01-30T07:51:13;9.20;;;4.57;;
75413;SDS011;64758;52.122;5.404;2024-01-30T07:53:40;8.05;;;5.10;;
75413;SDS011;64758;52.122;5.404;2024-01-30T07:56:08;8.73;;;5.50;;
75413;SDS011;64758;52.122;5.404;2024-01-30T07:58:34;8.35;;;5.63;;
75413;SDS011;64758;52.122;5.404;2024-01-30T08:01:01;9.60;;;5.45;;
75413;SDS011;64758;52.122;5.404;2024-01-30T08:03:28;6.83;;;4.33;;
75413;SDS011;64758;52.122;5.404;2024-01-30T08:05:55;9.63;;;5.00;;
75413;SDS011;64758;52.122;5.404;2024-01-30T08:08:21;8.75;;;5.40;;
75413;SDS011;64758;52.122;5.404;2024-01-30T08:10:48;9.98;;;4.78;;
75413;SDS011;64758;52.122;5.404;2024-01-30T08:13:16;9.80;;;5.53;;
75413;SDS011;64758;52.122;5.404;2024-01-30T08:15:43;16.40;;;6.03;;
75413;SDS011;64758;52.122;5.404;2024-01-30T08:18:09;8.13;;;5.13;;
75413;SDS011;64758;52.122;5.404;2024-01-30T08:20:36;9.63;;;5.20;;
75413;SDS011;64758;52.122;5.404;2024-01-30T08:23:03;8.65;;;5.07;;
75413;SDS011;64758;52.122;5.404;2024-01-30T08:25:29;10.57;;;4.53;;
75413;SDS011;64758;52.122;5.404;2024-01-30T08:27:56;7.37;;;4.73;;
75413;SDS011;64758;52.122;5.404;2024-01-30T08:30:24;9.38;;;5.28;;
75413;SDS011;64758;52.122;5.404;2024-01-30T08:32:50;11.48;;;5.35;;
75413;SDS011;64758;52.122;5.404;2024-01-30T08:35:18;7.03;;;4.32;;
75413;SDS011;64758;52.122;5.404;2024-01-30T08:37:45;10.18;;;5.25;;
75413;SDS011;64758;52.122;5.404;2024-01-30T08:40:12;13.50;;;5.50;;
75413;SDS011;64758;52.122;5.404;2024-01-30T08:42:38;8.75;;;5.25;;
75413;SDS011;64758;52.122;5.404;2024-01-30T08:45:05;13.93;;;5.13;;
75413;SDS011;64758;52.122;5.404;2024-01-30T08:47:33;9.02;;;5.15;;
75413;SDS011;64758;52.122;5.404;2024-01-30T08:49:59;13.98;;;5.35;;
75413;SDS011;64758;52.122;5.404;2024-01-30T08:52:26;10.07;;;5.20;;
75413;SDS011;64758;52.122;5.404;2024-01-30T08:54:53;11.13;;;4.95;;
75413;SDS011;64758;52.122;5.404;2024-01-30T08:57:20;13.80;;;5.72;;
75413;SDS011;64758;52.122;5.404;2024-01-30T08:59:47;10.35;;;4.97;;
75413;SDS011;64758;52.122;5.404;2024-01-30T09:02:14;16.65;;;5.50;;
75413;SDS011;64758;52.122;5.404;2024-01-30T09:04:42;8.93;;;5.23;;
75413;SDS011;64758;52.122;5.404;2024-01-30T09:07:09;8.77;;;5.40;;
75413;SDS011;64758;52.122;5.404;2024-01-30T09:09:40;11.73;;;5.22;;
75413;SDS011;64758;52.122;5.404;2024-01-30T09:12:07;10.18;;;5.13;;
75413;SDS011;64758;52.122;5.404;2024-01-30T09:14:36;8.57;;;4.68;;
75413;SDS011;64758;52.122;5.404;2024-01-30T09:17:03;10.93;;;5.17;;
75413;SDS011;64758;52.122;5.404;2024-01-30T09:19:30;8.70;;;4.65;;
75413;SDS011;64758;52.122;5.404;2024-01-30T09:21:57;9.32;;;4.82;;
75413;SDS011;64758;52.122;5.404;2024-01-30T09:24:24;8.13;;;4.90;;
75413;SDS011;64758;52.122;5.404;2024-01-30T09:26:51;9.32;;;4.80;;
75413;SDS011;64758;52.122;5.404;2024-01-30T09:29:18;13.00;;;5.30;;
75413;SDS011;64758;52.122;5.404;2024-01-30T09:31:45;7.15;;;4.68;;
75413;SDS011;64758;52.122;5.404;2024-01-30T09:34:12;8.68;;;5.50;;
75413;SDS011;64758;52.122;5.404;2024-01-30T09:36:39;9.57;;;5.32;;
75413;SDS011;64758;52.122;5.404;2024-01-30T09:39:06;10.82;;;5.70;;
75413;SDS011;64758;52.122;5.404;2024-01-30T09:41:33;12.57;;;5.00;;
75413;SDS011;64758;52.122;5.404;2024-01-30T09:44:11;11.23;;;5.13;;
75413;SDS011;64758;52.122;5.404;2024-01-30T09:46:38;10.13;;;5.03;;
75413;SDS011;64758;52.122;5.404;2024-01-30T09:49:05;9.32;;;4.88;;
75413;SDS011;64758;52.122;5.404;2024-01-30T09:51:33;10.75;;;4.85;;
75413;SDS011;64758;52.122;5.404;2024-01-30T09:54:01;10.53;;;4.73;;
75413;SDS011;64758;52.122;5.404;2024-01-30T09:56:29;11.70;;;5.55;;
75413;SDS011;64758;52.122;5.404;2024-01-30T09:58:56;10.27;;;5.15;;
75413;SDS011;64758;52.122;5.404;2024-01-30T10:01:22;8.30;;;5.30;;
75413;SDS011;64758;52.122;5.404;2024-01-30T10:03:50;11.02;;;5.35;;
75413;SDS011;64758;52.122;5.404;2024-01-30T10:06:19;12.87;;;5.53;;
75413;SDS011;64758;52.122;5.404;2024-01-30T10:08:48;11.80;;;5.00;;
75413;SDS011;64758;52.122;5.404;2024-01-30T10:11:14;8.70;;;4.90;;
75413;SDS011;64758;52.122;5.404;2024-01-30T10:13:41;10.00;;;5.47;;
75413;SDS011;64758;52.122;5.404;2024-01-30T10:16:08;9.73;;;4.68;;
75413;SDS011;64758;52.122;5.404;2024-01-30T10:18:35;10.13;;;4.87;;
75413;SDS011;64758;52.122;5.404;2024-01-30T10:21:01;10.75;;;5.28;;
75413;SDS011;64758;52.122;5.404;2024-01-30T10:23:29;10.75;;;5.28;;
75413;SDS011;64758;52.122;5.404;2024-01-30T10:26:02;9.77;;;5.20;;
75413;SDS011;64758;52.122;5.404;2024-01-30T10:28:30;7.63;;;4.68;;
75413;SDS011;64758;52.122;5.404;2024-01-30T10:30:57;13.47;;;5.27;;
75413;SDS011;64758;52.122;5.404;2024-01-30T10:33:32;10.93;;;5.22;;
75413;SDS011;64758;52.122;5.404;2024-01-30T10:36:02;9.00;;;4.75;;
75413;SDS011;64758;52.122;5.404;2024-01-30T10:38:32;11.68;;;4.90;;
75413;SDS011;64758;52.122;5.404;2024-01-30T10:41:00;10.88;;;5.28;;
75413;SDS011;64758;52.122;5.404;2024-01-30T10:43:30;7.10;;;4.60;;
75413;SDS011;64758;52.122;5.404;2024-01-30T10:46:04;7.32;;;4.72;;
75413;SDS011;64758;52.122;5.404;2024-01-30T10:48:37;8.80;;;4.63;;
75413;SDS011;64758;52.122;5.404;2024-01-30T10:51:10;7.63;;;4.88;;
75413;SDS011;64758;52.122;5.404;2024-01-30T10:53:39;10.35;;;5.10;;
75413;SDS011;64758;52.122;5.404;2024-01-30T10:56:06;7.93;;;4.67;;
75413;SDS011;64758;52.122;5.404;2024-01-30T10:58:34;9.55;;;4.65;;
75413;SDS011;64758;52.122;5.404;2024-01-30T11:01:00;7.68;;;4.45;;
75413;SDS011;64758;52.122;5.404;2024-01-30T11:03:28;7.35;;;4.68;;
75413;SDS011;64758;52.122;5.404;2024-01-30T11:05:58;10.10;;;4.68;;
75413;SDS011;64758;52.122;5.404;2024-01-30T11:08:26;6.57;;;4.07;;
75413;SDS011;64758;52.122;5.404;2024-01-30T11:10:58;7.13;;;4.25;;
75413;SDS011;64758;52.122;5.404;2024-01-30T11:13:31;12.30;;;4.57;;
75413;SDS011;64758;52.122;5.404;2024-01-30T11:16:02;9.25;;;4.05;;
75413;SDS011;64758;52.122;5.404;2024-01-30T11:18:30;8.38;;;4.55;;
75413;SDS011;64758;52.122;5.404;2024-01-30T11:20:58;7.00;;;3.87;;
75413;SDS011;64758;52.122;5.404;2024-01-30T11:23:27;6.93;;;4.18;;
75413;SDS011;64758;52.122;5.404;2024-01-30T11:25:55;9.35;;;4.50;;
75413;SDS011;64758;52.122;5.404;2024-01-30T11:28:22;5.63;;;4.00;;
75413;SDS011;64758;52.122;5.404;2024-01-30T11:30:49;8.82;;;4.05;;
75413;SDS011;64758;52.122;5.404;2024-01-30T11:33:28;5.63;;;3.70;;
75413;SDS011;64758;52.122;5.404;2024-01-30T11:36:00;5.90;;;3.22;;
75413;SDS011;64758;52.122;5.404;2024-01-30T11:38:28;4.88;;;2.53;;
75413;SDS011;64758;52.122;5.404;2024-01-30T11:40:55;3.45;;;1.77;;
75413;SDS011;64758;52.122;5.404;2024-01-30T11:43:24;5.55;;;1.63;;
75413;SDS011;64758;52.122;5.404;2024-01-30T11:45:51;3.83;;;1.60;;
75413;SDS011;64758;52.122;5.404;2024-01-30T11:48:18;4.68;;;1.20;;
75413;SDS011;64758;52.122;5.404;2024-01-30T11:50:45;3.70;;;1.27;;
75413;SDS011;64758;52.122;5.404;2024-01-30T11:53:12;3.38;;;0.88;;
75413;SDS011;64758;52.122;5.404;2024-01-30T11:55:39;3.50;;;0.85;;
75413;SDS011;64758;52.122;5.404;2024-01-30T11:58:06;4.17;;;0.50;;
75413;SDS011;64758;52.122;5.404;2024-01-30T12:00:33;6.32;;;0.80;;
75413;SDS011;64758;52.122;5.404;2024-01-30T12:03:01;3.08;;;0.93;;
75413;SDS011;64758;52.122;5.404;2024-01-30T12:05:28;2.42;;;0.60;;
75413;SDS011;64758;52.122;5.404;2024-01-30T12:07:55;4.25;;;0.50;;
75413;SDS011;64758;52.122;5.404;2024-01-30T12:10:26;3.30;;;0.60;;
75413;SDS011;64758;52.122;5.404;2024-01-30T12:12:53;3.53;;;0.50;;
75413;SDS011;64758;52.122;5.404;2024-01-30T12:15:21;4.68;;;0.70;;
75413;SDS011;64758;52.122;5.404;2024-01-30T12:17:48;2.97;;;0.43;;
75413;SDS011;64758;52.122;5.404;2024-01-30T12:20:18;2.05;;;0.65;;
75413;SDS011;64758;52.122;5.404;2024-01-30T12:22:47;2.27;;;0.50;;
75413;SDS011;64758;52.122;5.404;2024-01-30T12:25:18;4.10;;;0.73;;
75413;SDS011;64758;52.122;5.404;2024-01-30T12:27:48;3.47;;;1.27;;
75413;SDS011;64758;52.122;5.404;2024-01-30T12:30:17;4.15;;;1.15;;
75413;SDS011;64758;52.122;5.404;2024-01-30T12:32:46;7.43;;;1.90;;
75413;SDS011;64758;52.122;5.404;2024-01-30T12:35:15;5.60;;;1.73;;
75413;SDS011;64758;52.122;5.404;2024-01-30T12:37:44;5.28;;;1.35;;
75413;SDS011;64758;52.122;5.404;2024-01-30T12:40:13;5.88;;;1.40;;
75413;SDS011;64758;52.122;5.404;2024-01-30T12:42:41;2.72;;;1.30;;
75413;SDS011;64758;52.122;5.404;2024-01-30T12:45:09;5.93;;;1.13;;
75413;SDS011;64758;52.122;5.404;2024-01-30T12:47:36;1.73;;;0.80;;
75413;SDS011;64758;52.122;5.404;2024-01-30T12:50:02;3.40;;;0.98;;
75413;SDS011;64758;52.122;5.404;2024-01-30T12:52:30;5.18;;;0.90;;
75413;SDS011;64758;52.122;5.404;2024-01-30T12:54:57;4.35;;;1.42;;
75413;SDS011;64758;52.122;5.404;2024-01-30T12:57:24;6.07;;;1.13;;
75413;SDS011;64758;52.122;5.404;2024-01-30T12:59:51;4.60;;;1.23;;
75413;SDS011;64758;52.122;5.404;2024-01-30T13:02:17;5.47;;;1.23;;
75413;SDS011;64758;52.122;5.404;2024-01-30T13:04:44;4.80;;;1.13;;
75413;SDS011;64758;52.122;5.404;2024-01-30T13:07:15;4.72;;;1.08;;
75413;SDS011;64758;52.122;5.404;2024-01-30T13:09:42;3.72;;;1.00;;
75413;SDS011;64758;52.122;5.404;2024-01-30T13:12:09;2.17;;;1.00;;
75413;SDS011;64758;52.122;5.404;2024-01-30T13:14:35;3.22;;;0.90;;
75413;SDS011;64758;52.122;5.404;2024-01-30T13:17:02;2.67;;;0.90;;
75413;SDS011;64758;52.122;5.404;2024-01-30T13:19:29;2.83;;;0.93;;
75413;SDS011;64758;52.122;5.404;2024-01-30T13:21:56;4.45;;;0.80;;
75413;SDS011;64758;52.122;5.404;2024-01-30T13:24:22;3.03;;;0.73;;
75413;SDS011;64758;52.122;5.404;2024-01-30T13:26:49;2.40;;;0.50;;
75413;SDS011;64758;52.122;5.404;2024-01-30T13:29:15;1.60;;;0.40;;
75413;SDS011;64758;52.122;5.404;2024-01-30T13:31:42;3.33;;;0.40;;
75413;SDS011;64758;52.122;5.404;2024-01-30T13:34:10;2.28;;;0.50;;
75413;SDS011;64758;52.122;5.404;2024-01-30T13:36:38;2.97;;;0.30;;
75413;SDS011;64758;52.122;5.404;2024-01-30T13:39:05;0.75;;;0.30;;
75413;SDS011;64758;52.122;5.404;2024-01-30T13:41:35;1.45;;;0.47;;
75413;SDS011;64758;52.122;5.404;2024-01-30T13:44:03;0.50;;;0.22;;
75413;SDS011;64758;52.122;5.404;2024-01-30T13:46:30;2.40;;;0.40;;
75413;SDS011;64758;52.122;5.404;2024-01-30T13:48:57;2.43;;;0.43;;
75413;SDS011;64758;52.122;5.404;2024-01-30T13:51:24;1.45;;;0.40;;
75413;SDS011;64758;52.122;5.404;2024-01-30T13:53:51;1.77;;;0.32;;
75413;SDS011;64758;52.122;5.404;2024-01-30T13:56:17;1.17;;;0.30;;
75413;SDS011;64758;52.122;5.404;2024-01-30T13:58:45;3.45;;;0.82;;
75413;SDS011;64758;52.122;5.404;2024-01-30T14:01:11;3.17;;;0.40;;
75413;SDS011;64758;52.122;5.404;2024-01-30T14:03:38;2.03;;;0.30;;
75413;SDS011;64758;52.122;5.404;2024-01-30T14:06:05;2.15;;;0.47;;
75413;SDS011;64758;52.122;5.404;2024-01-30T14:08:32;2.85;;;0.40;;
75413;SDS011;64758;52.122;5.404;2024-01-30T14:10:58;4.68;;;0.52;;
75413;SDS011;64758;52.122;5.404;2024-01-30T14:13:25;0.97;;;0.40;;
75413;SDS011;64758;52.122;5.404;2024-01-30T14:15:52;3.58;;;0.63;;
75413;SDS011;64758;52.122;5.404;2024-01-30T14:18:19;1.70;;;0.40;;
75413;SDS011;64758;52.122;5.404;2024-01-30T14:20:46;5.75;;;0.65;;
75413;SDS011;64758;52.122;5.404;2024-01-30T14:23:13;2.35;;;0.70;;
75413;SDS011;64758;52.122;5.404;2024-01-30T14:25:39;3.70;;;0.60;;
75413;SDS011;64758;52.122;5.404;2024-01-30T14:28:06;2.88;;;0.43;;
75413;SDS011;64758;52.122;5.404;2024-01-30T14:30:33;2.28;;;0.40;;
75413;SDS011;64758;52.122;5.404;2024-01-30T14:33:00;3.28;;;0.57;;
75413;SDS011;64758;52.122;5.404;2024-01-30T14:35:27;2.78;;;0.35;;
75413;SDS011;64758;52.122;5.404;2024-01-30T14:37:53;6.20;;;0.50;;
75413;SDS011;64758;52.122;5.404;2024-01-30T14:40:20;1.80;;;0.30;;
75413;SDS011;64758;52.122;5.404;2024-01-30T14:42:47;3.00;;;0.40;;